sensor_id;sensor_type;location;lat;lon;timestamp;P1;durP1;ratioP1;P2;durP2;ratioP2
4385;SDS011;2207;53.540;10.042;2023-05-07T00:01:58;10.03;;;7.60;;
4385;SDS011;2207;53.540;10.042;2023-05-07T00:04:24;10.80;;;7.97;;
4385;SDS011;2207;53.540;10.042;2023-05-07T00:06:51;6.67;;;5.27;;
4385;SDS011;2207;53.540;10.042;2023-05-07T00:09:18;8.67;;;6.90;;
4385;SDS011;2207;53.540;10.042;2023-05-07T00:11:44;11.00;;;7.00;;
4385;SDS011;2207;53.540;10.042;2023-05-07T00:14:12;11.20;;;8.53;;
4385;SDS011;2207;53.540;10.042;2023-05-07T00:16:39;6.83;;;4.70;;
4385;SDS011;2207;53.540;10.042;2023-05-07T00:19:06;8.70;;;7.20;;
4385;SDS011;2207;53.540;10.042;2023-05-07T00:21:33;11.47;;;7.07;;
4385;SDS011;2207;53.540;10.042;2023-05-07T00:24:00;10.37;;;8.30;;
4385;SDS011;2207;53.540;10.042;2023-05-07T00:26:26;10.30;;;9.20;;
4385;SDS011;2207;53.540;10.042;2023-05-07T00:28:53;7.30;;;5.77;;
4385;SDS011;2207;53.540;10.042;2023-05-07T00:31:21;10.70;;;7.80;;
4385;SDS011;2207;53.540;10.042;2023-05-07T00:33:48;10.37;;;7.93;;
4385;SDS011;2207;53.540;10.042;2023-05-07T00:36:15;8.33;;;7.43;;
4385;SDS011;2207;53.540;10.042;2023-05-07T00:38:41;9.10;;;7.00;;
4385;SDS011;2207;53.540;10.042;2023-05-07T00:41:08;7.67;;;6.87;;
4385;SDS011;2207;53.540;10.042;2023-05-07T00:43:35;7.47;;;6.77;;
4385;SDS011;2207;53.540;10.042;2023-05-07T00:46:02;8.37;;;6.47;;
4385;SDS011;2207;53.540;10.042;2023-05-07T00:48:30;8.73;;;6.60;;
4385;SDS011;2207;53.540;10.042;2023-05-07T00:50:57;5.43;;;4.90;;
4385;SDS011;2207;53.540;10.042;2023-05-07T00:53:24;9.20;;;7.03;;
4385;SDS011;2207;53.540;10.042;2023-05-07T00:55:51;8.03;;;6.47;;
4385;SDS011;2207;53.540;10.042;2023-05-07T00:58:19;10.10;;;6.90;;
4385;SDS011;2207;53.540;10.042;2023-05-07T01:00:47;8.30;;;6.70;;
4385;SDS011;2207;53.540;10.042;2023-05-07T01:03:14;4.70;;;4.27;;
4385;SDS011;2207;53.540;10.042;2023-05-07T01:05:42;5.90;;;5.20;;
4385;SDS011;2207;53.540;10.042;2023-05-07T01:08:11;10.00;;;7.70;;
4385;SDS011;2207;53.540;10.042;2023-05-07T01:10:39;6.23;;;5.63;;
4385;SDS011;2207;53.540;10.042;2023-05-07T01:13:08;7.10;;;6.37;;
4385;SDS011;2207;53.540;10.042;2023-05-07T01:15:35;11.60;;;5.50;;
4385;SDS011;2207;53.540;10.042;2023-05-07T01:18:02;3.57;;;3.23;;
4385;SDS011;2207;53.540;10.042;2023-05-07T01:20:28;6.10;;;4.67;;
4385;SDS011;2207;53.540;10.042;2023-05-07T01:22:57;8.77;;;6.47;;
4385;SDS011;2207;53.540;10.042;2023-05-07T01:25:25;8.33;;;7.00;;
4385;SDS011;2207;53.540;10.042;2023-05-07T01:27:52;7.33;;;6.27;;
4385;SDS011;2207;53.540;10.042;2023-05-07T01:30:19;6.70;;;6.00;;
4385;SDS011;2207;53.540;10.042;2023-05-07T01:32:47;7.87;;;7.10;;
4385;SDS011;2207;53.540;10.042;2023-05-07T01:35:18;6.57;;;5.93;;
4385;SDS011;2207;53.540;10.042;2023-05-07T01:37:47;6.80;;;6.10;;
4385;SDS011;2207;53.540;10.042;2023-05-07T01:40:16;8.43;;;5.73;;
4385;SDS011;2207;53.540;10.042;2023-05-07T01:42:43;7.93;;;6.33;;
4385;SDS011;2207;53.540;10.042;2023-05-07T01:45:11;9.27;;;7.40;;
4385;SDS011;2207;53.540;10.042;2023-05-07T01:47:37;8.27;;;6.67;;
4385;SDS011;2207;53.540;10.042;2023-05-07T01:50:05;7.00;;;6.40;;
4385;SDS011;2207;53.540;10.042;2023-05-07T01:52:34;7.03;;;5.70;;
4385;SDS011;2207;53.540;10.042;2023-05-07T01:55:00;7.43;;;6.30;;
4385;SDS011;2207;53.540;10.042;2023-05-07T01:57:29;7.03;;;6.23;;
4385;SDS011;2207;53.540;10.042;2023-05-07T01:59:55;7.80;;;6.57;;
4385;SDS011;2207;53.540;10.042;2023-05-07T02:02:22;4.60;;;4.20;;
4385;SDS011;2207;53.540;10.042;2023-05-07T02:04:48;5.67;;;5.03;;
4385;SDS011;2207;53.540;10.042;2023-05-07T02:07:15;6.87;;;5.73;;
4385;SDS011;2207;53.540;10.042;2023-05-07T02:09:42;6.50;;;5.83;;
4385;SDS011;2207;53.540;10.042;2023-05-07T02:12:08;8.80;;;5.07;;
4385;SDS011;2207;53.540;10.042;2023-05-07T02:14:36;4.60;;;3.37;;
4385;SDS011;2207;53.540;10.042;2023-05-07T02:17:03;5.83;;;5.30;;
4385;SDS011;2207;53.540;10.042;2023-05-07T02:19:30;6.40;;;4.40;;
4385;SDS011;2207;53.540;10.042;2023-05-07T02:21:57;7.80;;;4.90;;
4385;SDS011;2207;53.540;10.042;2023-05-07T02:24:23;7.47;;;6.63;;
4385;SDS011;2207;53.540;10.042;2023-05-07T02:26:50;8.30;;;6.23;;
4385;SDS011;2207;53.540;10.042;2023-05-07T02:29:17;4.83;;;3.00;;
4385;SDS011;2207;53.540;10.042;2023-05-07T02:31:45;4.53;;;3.53;;
4385;SDS011;2207;53.540;10.042;2023-05-07T02:34:12;3.30;;;3.03;;
4385;SDS011;2207;53.540;10.042;2023-05-07T02:36:39;5.60;;;4.77;;
4385;SDS011;2207;53.540;10.042;2023-05-07T02:39:05;3.73;;;3.37;;
4385;SDS011;2207;53.540;10.042;2023-05-07T02:41:32;7.90;;;6.43;;
4385;SDS011;2207;53.540;10.042;2023-05-07T02:43:59;5.43;;;4.33;;
4385;SDS011;2207;53.540;10.042;2023-05-07T02:46:25;5.43;;;4.53;;
4385;SDS011;2207;53.540;10.042;2023-05-07T02:48:53;5.70;;;5.10;;
4385;SDS011;2207;53.540;10.042;2023-05-07T02:51:21;8.37;;;7.03;;
4385;SDS011;2207;53.540;10.042;2023-05-07T02:53:48;3.80;;;3.40;;
4385;SDS011;2207;53.540;10.042;2023-05-07T02:56:15;4.77;;;4.23;;
4385;SDS011;2207;53.540;10.042;2023-05-07T02:58:42;9.80;;;6.17;;
4385;SDS011;2207;53.540;10.042;2023-05-07T03:01:08;5.37;;;4.67;;
4385;SDS011;2207;53.540;10.042;2023-05-07T03:03:35;6.87;;;6.20;;
4385;SDS011;2207;53.540;10.042;2023-05-07T03:06:04;7.93;;;6.87;;
4385;SDS011;2207;53.540;10.042;2023-05-07T03:08:34;6.90;;;5.57;;
4385;SDS011;2207;53.540;10.042;2023-05-07T03:11:01;7.30;;;6.43;;
4385;SDS011;2207;53.540;10.042;2023-05-07T03:13:28;6.90;;;5.67;;
4385;SDS011;2207;53.540;10.042;2023-05-07T03:15:55;9.27;;;7.63;;
4385;SDS011;2207;53.540;10.042;2023-05-07T03:18:21;5.87;;;5.27;;
4385;SDS011;2207;53.540;10.042;2023-05-07T03:20:48;8.17;;;7.27;;
4385;SDS011;2207;53.540;10.042;2023-05-07T03:23:16;6.93;;;5.47;;
4385;SDS011;2207;53.540;10.042;2023-05-07T03:25:43;7.17;;;6.17;;
4385;SDS011;2207;53.540;10.042;2023-05-07T03:28:10;9.20;;;6.90;;
4385;SDS011;2207;53.540;10.042;2023-05-07T03:30:36;9.23;;;6.40;;
4385;SDS011;2207;53.540;10.042;2023-05-07T03:33:03;5.70;;;4.33;;
4385;SDS011;2207;53.540;10.042;2023-05-07T03:35:29;6.67;;;6.00;;
4385;SDS011;2207;53.540;10.042;2023-05-07T03:37:56;7.83;;;7.03;;
4385;SDS011;2207;53.540;10.042;2023-05-07T03:40:24;11.73;;;6.63;;
4385;SDS011;2207;53.540;10.042;2023-05-07T03:42:51;4.90;;;4.03;;
4385;SDS011;2207;53.540;10.042;2023-05-07T03:45:18;6.53;;;5.13;;
4385;SDS011;2207;53.540;10.042;2023-05-07T03:47:44;6.07;;;5.30;;
4385;SDS011;2207;53.540;10.042;2023-05-07T03:50:11;9.00;;;7.17;;
4385;SDS011;2207;53.540;10.042;2023-05-07T03:52:38;7.60;;;6.80;;
4385;SDS011;2207;53.540;10.042;2023-05-07T03:55:05;7.07;;;6.37;;
4385;SDS011;2207;53.540;10.042;2023-05-07T03:57:34;7.43;;;6.30;;
4385;SDS011;2207;53.540;10.042;2023-05-07T04:00:00;8.03;;;6.40;;
4385;SDS011;2207;53.540;10.042;2023-05-07T04:02:29;9.87;;;4.80;;
4385;SDS011;2207;53.540;10.042;2023-05-07T04:04:55;9.93;;;6.60;;
4385;SDS011;2207;53.540;10.042;2023-05-07T04:07:22;7.40;;;6.60;;
4385;SDS011;2207;53.540;10.042;2023-05-07T04:09:48;12.37;;;7.67;;
4385;SDS011;2207;53.540;10.042;2023-05-07T04:12:15;7.40;;;6.33;;
4385;SDS011;2207;53.540;10.042;2023-05-07T04:14:43;9.00;;;7.37;;
4385;SDS011;2207;53.540;10.042;2023-05-07T04:17:11;8.13;;;6.80;;
4385;SDS011;2207;53.540;10.042;2023-05-07T04:19:37;6.13;;;5.53;;
4385;SDS011;2207;53.540;10.042;2023-05-07T04:22:04;5.97;;;5.03;;
4385;SDS011;2207;53.540;10.042;2023-05-07T04:24:31;8.87;;;7.07;;
4385;SDS011;2207;53.540;10.042;2023-05-07T04:26:58;9.30;;;6.07;;
4385;SDS011;2207;53.540;10.042;2023-05-07T04:29:24;8.40;;;6.60;;
4385;SDS011;2207;53.540;10.042;2023-05-07T04:31:52;7.80;;;6.10;;
4385;SDS011;2207;53.540;10.042;2023-05-07T04:34:20;9.60;;;7.83;;
4385;SDS011;2207;53.540;10.042;2023-05-07T04:36:47;8.90;;;5.37;;
4385;SDS011;2207;53.540;10.042;2023-05-07T04:39:14;7.20;;;6.17;;
4385;SDS011;2207;53.540;10.042;2023-05-07T04:41:41;4.87;;;4.47;;
4385;SDS011;2207;53.540;10.042;2023-05-07T04:44:07;6.50;;;5.60;;
4385;SDS011;2207;53.540;10.042;2023-05-07T04:46:34;7.23;;;5.77;;
4385;SDS011;2207;53.540;10.042;2023-05-07T04:49:02;5.20;;;4.27;;
4385;SDS011;2207;53.540;10.042;2023-05-07T04:51:29;8.10;;;5.27;;
4385;SDS011;2207;53.540;10.042;2023-05-07T04:53:57;6.90;;;6.20;;
4385;SDS011;2207;53.540;10.042;2023-05-07T04:56:24;7.40;;;5.80;;
4385;SDS011;2207;53.540;10.042;2023-05-07T04:58:53;7.10;;;6.40;;
4385;SDS011;2207;53.540;10.042;2023-05-07T05:01:20;5.07;;;3.80;;
4385;SDS011;2207;53.540;10.042;2023-05-07T05:03:47;6.07;;;5.50;;
4385;SDS011;2207;53.540;10.042;2023-05-07T05:06:15;5.83;;;5.27;;
4385;SDS011;2207;53.540;10.042;2023-05-07T05:08:41;6.83;;;5.93;;
4385;SDS011;2207;53.540;10.042;2023-05-07T05:11:08;5.57;;;5.00;;
4385;SDS011;2207;53.540;10.042;2023-05-07T05:13:35;7.83;;;6.03;;
4385;SDS011;2207;53.540;10.042;2023-05-07T05:16:01;7.77;;;6.77;;
4385;SDS011;2207;53.540;10.042;2023-05-07T05:18:28;7.13;;;6.37;;
4385;SDS011;2207;53.540;10.042;2023-05-07T05:20:55;7.70;;;5.87;;
4385;SDS011;2207;53.540;10.042;2023-05-07T05:23:23;5.00;;;3.67;;
4385;SDS011;2207;53.540;10.042;2023-05-07T05:25:50;8.57;;;5.60;;
4385;SDS011;2207;53.540;10.042;2023-05-07T05:28:21;5.57;;;5.07;;
4385;SDS011;2207;53.540;10.042;2023-05-07T05:30:47;3.17;;;2.90;;
4385;SDS011;2207;53.540;10.042;2023-05-07T05:33:14;9.40;;;5.17;;
4385;SDS011;2207;53.540;10.042;2023-05-07T05:35:41;7.83;;;5.93;;
4385;SDS011;2207;53.540;10.042;2023-05-07T05:38:07;6.33;;;5.10;;
4385;SDS011;2207;53.540;10.042;2023-05-07T05:40:35;6.73;;;5.90;;
4385;SDS011;2207;53.540;10.042;2023-05-07T05:43:02;3.20;;;2.90;;
4385;SDS011;2207;53.540;10.042;2023-05-07T05:45:29;5.23;;;4.67;;
4385;SDS011;2207;53.540;10.042;2023-05-07T05:47:56;5.77;;;4.63;;
4385;SDS011;2207;53.540;10.042;2023-05-07T05:50:22;5.40;;;4.90;;
4385;SDS011;2207;53.540;10.042;2023-05-07T05:52:49;4.43;;;4.07;;
4385;SDS011;2207;53.540;10.042;2023-05-07T05:55:16;6.17;;;5.40;;
4385;SDS011;2207;53.540;10.042;2023-05-07T05:57:44;6.73;;;4.20;;
4385;SDS011;2207;53.540;10.042;2023-05-07T06:00:11;6.37;;;5.77;;
4385;SDS011;2207;53.540;10.042;2023-05-07T06:02:39;5.20;;;4.80;;
4385;SDS011;2207;53.540;10.042;2023-05-07T06:05:05;7.70;;;6.80;;
4385;SDS011;2207;53.540;10.042;2023-05-07T06:07:33;7.07;;;5.20;;
4385;SDS011;2207;53.540;10.042;2023-05-07T06:09:59;5.10;;;4.60;;
4385;SDS011;2207;53.540;10.042;2023-05-07T06:12:26;5.03;;;4.53;;
4385;SDS011;2207;53.540;10.042;2023-05-07T06:14:54;4.60;;;4.20;;
4385;SDS011;2207;53.540;10.042;2023-05-07T06:17:21;7.03;;;6.33;;
4385;SDS011;2207;53.540;10.042;2023-05-07T06:19:47;5.87;;;5.37;;
4385;SDS011;2207;53.540;10.042;2023-05-07T06:22:14;7.33;;;6.60;;
4385;SDS011;2207;53.540;10.042;2023-05-07T06:24:41;6.63;;;5.20;;
4385;SDS011;2207;53.540;10.042;2023-05-07T06:27:08;6.30;;;5.67;;
4385;SDS011;2207;53.540;10.042;2023-05-07T06:29:34;8.33;;;6.60;;
4385;SDS011;2207;53.540;10.042;2023-05-07T06:32:08;6.67;;;5.83;;
4385;SDS011;2207;53.540;10.042;2023-05-07T06:34:35;6.47;;;5.50;;
4385;SDS011;2207;53.540;10.042;2023-05-07T06:37:03;6.70;;;5.57;;
4385;SDS011;2207;53.540;10.042;2023-05-07T06:39:29;7.20;;;6.10;;
4385;SDS011;2207;53.540;10.042;2023-05-07T06:41:56;7.10;;;6.33;;
4385;SDS011;2207;53.540;10.042;2023-05-07T06:44:23;4.90;;;4.30;;
4385;SDS011;2207;53.540;10.042;2023-05-07T06:46:50;8.07;;;6.47;;
4385;SDS011;2207;53.540;10.042;2023-05-07T06:49:18;3.33;;;2.93;;
4385;SDS011;2207;53.540;10.042;2023-05-07T06:51:44;5.90;;;4.93;;
4385;SDS011;2207;53.540;10.042;2023-05-07T06:54:11;6.20;;;5.60;;
4385;SDS011;2207;53.540;10.042;2023-05-07T06:56:38;6.97;;;6.37;;
4385;SDS011;2207;53.540;10.042;2023-05-07T06:59:04;4.33;;;3.93;;
4385;SDS011;2207;53.540;10.042;2023-05-07T07:01:32;2.13;;;1.93;;
4385;SDS011;2207;53.540;10.042;2023-05-07T07:03:58;2.93;;;2.37;;
4385;SDS011;2207;53.540;10.042;2023-05-07T07:06:26;5.63;;;5.07;;
4385;SDS011;2207;53.540;10.042;2023-05-07T07:08:53;4.17;;;3.77;;
4385;SDS011;2207;53.540;10.042;2023-05-07T07:11:20;4.70;;;4.10;;
4385;SDS011;2207;53.540;10.042;2023-05-07T07:13:46;3.40;;;3.10;;
4385;SDS011;2207;53.540;10.042;2023-05-07T07:16:13;4.37;;;3.97;;
4385;SDS011;2207;53.540;10.042;2023-05-07T07:18:40;3.00;;;2.73;;
4385;SDS011;2207;53.540;10.042;2023-05-07T07:21:06;4.30;;;2.90;;
4385;SDS011;2207;53.540;10.042;2023-05-07T07:23:34;5.53;;;4.90;;
4385;SDS011;2207;53.540;10.042;2023-05-07T07:26:01;4.07;;;3.67;;
4385;SDS011;2207;53.540;10.042;2023-05-07T07:28:28;2.77;;;2.57;;
4385;SDS011;2207;53.540;10.042;2023-05-07T07:30:54;5.27;;;4.87;;
4385;SDS011;2207;53.540;10.042;2023-05-07T07:33:22;3.70;;;2.80;;
4385;SDS011;2207;53.540;10.042;2023-05-07T07:35:49;5.13;;;4.63;;
4385;SDS011;2207;53.540;10.042;2023-05-07T07:38:15;4.40;;;3.37;;
4385;SDS011;2207;53.540;10.042;2023-05-07T07:40:44;6.37;;;4.80;;
4385;SDS011;2207;53.540;10.042;2023-05-07T07:43:11;5.47;;;4.50;;
4385;SDS011;2207;53.540;10.042;2023-05-07T07:45:37;4.80;;;4.43;;
4385;SDS011;2207;53.540;10.042;2023-05-07T07:48:04;4.00;;;3.60;;
4385;SDS011;2207;53.540;10.042;2023-05-07T07:50:31;3.97;;;3.57;;
4385;SDS011;2207;53.540;10.042;2023-05-07T07:52:58;3.53;;;3.23;;
4385;SDS011;2207;53.540;10.042;2023-05-07T07:55:25;3.23;;;3.03;;
4385;SDS011;2207;53.540;10.042;2023-05-07T07:57:53;5.17;;;4.60;;
4385;SDS011;2207;53.540;10.042;2023-05-07T08:00:20;3.00;;;2.70;;
4385;SDS011;2207;53.540;10.042;2023-05-07T08:02:47;7.83;;;5.17;;
4385;SDS011;2207;53.540;10.042;2023-05-07T08:05:13;5.93;;;4.50;;
4385;SDS011;2207;53.540;10.042;2023-05-07T08:07:40;4.37;;;3.70;;
4385;SDS011;2207;53.540;10.042;2023-05-07T08:10:07;5.30;;;4.60;;
4385;SDS011;2207;53.540;10.042;2023-05-07T08:12:34;5.77;;;4.70;;
4385;SDS011;2207;53.540;10.042;2023-05-07T08:15:02;4.40;;;4.00;;
4385;SDS011;2207;53.540;10.042;2023-05-07T08:17:30;4.00;;;3.70;;
4385;SDS011;2207;53.540;10.042;2023-05-07T08:19:56;2.80;;;2.60;;
4385;SDS011;2207;53.540;10.042;2023-05-07T08:22:23;3.17;;;2.87;;
4385;SDS011;2207;53.540;10.042;2023-05-07T08:24:49;3.77;;;3.40;;
4385;SDS011;2207;53.540;10.042;2023-05-07T08:27:18;2.80;;;2.60;;
4385;SDS011;2207;53.540;10.042;2023-05-07T08:29:44;3.03;;;2.73;;
4385;SDS011;2207;53.540;10.042;2023-05-07T08:32:14;4.07;;;2.90;;
4385;SDS011;2207;53.540;10.042;2023-05-07T08:34:40;3.50;;;2.80;;
4385;SDS011;2207;53.540;10.042;2023-05-07T08:37:07;4.77;;;4.00;;
4385;SDS011;2207;53.540;10.042;2023-05-07T08:39:34;4.73;;;4.33;;
4385;SDS011;2207;53.540;10.042;2023-05-07T08:42:00;4.00;;;3.70;;
4385;SDS011;2207;53.540;10.042;2023-05-07T08:44:29;4.80;;;4.33;;
4385;SDS011;2207;53.540;10.042;2023-05-07T08:46:59;3.67;;;3.37;;
4385;SDS011;2207;53.540;10.042;2023-05-07T08:49:28;4.47;;;3.93;;
4385;SDS011;2207;53.540;10.042;2023-05-07T08:51:55;2.43;;;2.27;;
4385;SDS011;2207;53.540;10.042;2023-05-07T08:54:22;4.90;;;4.17;;
4385;SDS011;2207;53.540;10.042;2023-05-07T08:56:49;4.50;;;3.43;;
4385;SDS011;2207;53.540;10.042;2023-05-07T08:59:16;4.47;;;4.10;;
4385;SDS011;2207;53.540;10.042;2023-05-07T09:01:43;5.70;;;4.90;;
4385;SDS011;2207;53.540;10.042;2023-05-07T09:04:09;6.57;;;4.70;;
4385;SDS011;2207;53.540;10.042;2023-05-07T09:06:39;6.80;;;4.87;;
4385;SDS011;2207;53.540;10.042;2023-05-07T09:09:06;2.60;;;2.40;;
4385;SDS011;2207;53.540;10.042;2023-05-07T09:11:33;6.70;;;5.00;;
4385;SDS011;2207;53.540;10.042;2023-05-07T09:14:00;4.53;;;4.10;;
4385;SDS011;2207;53.540;10.042;2023-05-07T09:16:28;4.00;;;3.60;;
4385;SDS011;2207;53.540;10.042;2023-05-07T09:18:57;5.73;;;4.30;;
4385;SDS011;2207;53.540;10.042;2023-05-07T09:21:25;6.97;;;3.47;;
4385;SDS011;2207;53.540;10.042;2023-05-07T09:23:54;5.77;;;4.47;;
4385;SDS011;2207;53.540;10.042;2023-05-07T09:26:21;3.87;;;3.50;;
4385;SDS011;2207;53.540;10.042;2023-05-07T09:28:48;4.30;;;3.90;;
4385;SDS011;2207;53.540;10.042;2023-05-07T09:31:15;4.17;;;3.80;;
4385;SDS011;2207;53.540;10.042;2023-05-07T09:33:42;2.47;;;2.20;;
4385;SDS011;2207;53.540;10.042;2023-05-07T09:36:09;6.20;;;4.90;;
4385;SDS011;2207;53.540;10.042;2023-05-07T09:38:37;2.63;;;2.50;;
4385;SDS011;2207;53.540;10.042;2023-05-07T09:41:06;3.03;;;2.83;;
4385;SDS011;2207;53.540;10.042;2023-05-07T09:43:34;3.13;;;2.57;;
4385;SDS011;2207;53.540;10.042;2023-05-07T09:46:02;4.23;;;3.60;;
4385;SDS011;2207;53.540;10.042;2023-05-07T09:48:31;8.07;;;2.47;;
4385;SDS011;2207;53.540;10.042;2023-05-07T09:51:02;5.10;;;4.60;;
4385;SDS011;2207;53.540;10.042;2023-05-07T09:53:33;6.30;;;4.20;;
4385;SDS011;2207;53.540;10.042;2023-05-07T09:56:00;3.50;;;3.10;;
4385;SDS011;2207;53.540;10.042;2023-05-07T09:58:29;2.80;;;2.60;;
4385;SDS011;2207;53.540;10.042;2023-05-07T10:00:58;3.50;;;3.20;;
4385;SDS011;2207;53.540;10.042;2023-05-07T10:03:24;2.87;;;2.67;;
4385;SDS011;2207;53.540;10.042;2023-05-07T10:05:53;5.13;;;4.63;;
4385;SDS011;2207;53.540;10.042;2023-05-07T10:08:21;4.50;;;4.00;;
4385;SDS011;2207;53.540;10.042;2023-05-07T10:10:47;4.10;;;3.77;;
4385;SDS011;2207;53.540;10.042;2023-05-07T10:13:16;10.47;;;3.80;;
4385;SDS011;2207;53.540;10.042;2023-05-07T10:15:45;4.83;;;4.30;;
4385;SDS011;2207;53.540;10.042;2023-05-07T10:18:13;2.93;;;2.73;;
4385;SDS011;2207;53.540;10.042;2023-05-07T10:20:41;2.80;;;2.40;;
4385;SDS011;2207;53.540;10.042;2023-05-07T10:23:12;3.00;;;2.67;;
4385;SDS011;2207;53.540;10.042;2023-05-07T10:25:40;3.67;;;3.37;;
4385;SDS011;2207;53.540;10.042;2023-05-07T10:28:08;3.23;;;3.03;;
4385;SDS011;2207;53.540;10.042;2023-05-07T10:30:38;5.93;;;4.60;;
4385;SDS011;2207;53.540;10.042;2023-05-07T10:33:19;9.53;;;3.63;;
4385;SDS011;2207;53.540;10.042;2023-05-07T10:35:50;4.03;;;3.63;;
4385;SDS011;2207;53.540;10.042;2023-05-07T10:38:17;3.80;;;3.20;;
4385;SDS011;2207;53.540;10.042;2023-05-07T10:40:44;4.80;;;4.20;;
4385;SDS011;2207;53.540;10.042;2023-05-07T10:43:10;4.23;;;3.83;;
4385;SDS011;2207;53.540;10.042;2023-05-07T10:45:37;2.60;;;2.40;;
4385;SDS011;2207;53.540;10.042;2023-05-07T10:48:06;2.43;;;2.33;;
4385;SDS011;2207;53.540;10.042;2023-05-07T10:50:37;3.93;;;3.57;;
4385;SDS011;2207;53.540;10.042;2023-05-07T10:53:23;2.87;;;2.50;;
4385;SDS011;2207;53.540;10.042;2023-05-07T10:58:54;3.80;;;3.17;;
4385;SDS011;2207;53.540;10.042;2023-05-07T11:04:18;2.60;;;2.40;;
4385;SDS011;2207;53.540;10.042;2023-05-07T11:09:59;3.50;;;3.20;;
4385;SDS011;2207;53.540;10.042;2023-05-07T11:15:34;1.87;;;1.77;;
4385;SDS011;2207;53.540;10.042;2023-05-07T11:18:02;2.97;;;2.77;;
4385;SDS011;2207;53.540;10.042;2023-05-07T11:20:47;2.07;;;1.93;;
4385;SDS011;2207;53.540;10.042;2023-05-07T11:26:25;3.27;;;2.97;;
4385;SDS011;2207;53.540;10.042;2023-05-07T11:28:52;3.47;;;2.97;;
4385;SDS011;2207;53.540;10.042;2023-05-07T11:31:20;3.40;;;3.10;;
4385;SDS011;2207;53.540;10.042;2023-05-07T11:33:48;4.07;;;3.67;;
4385;SDS011;2207;53.540;10.042;2023-05-07T11:36:17;3.77;;;3.47;;
4385;SDS011;2207;53.540;10.042;2023-05-07T11:38:45;3.90;;;3.50;;
4385;SDS011;2207;53.540;10.042;2023-05-07T11:41:12;4.10;;;3.43;;
4385;SDS011;2207;53.540;10.042;2023-05-07T11:43:48;2.90;;;2.70;;
4385;SDS011;2207;53.540;10.042;2023-05-07T11:46:23;3.40;;;3.10;;
4385;SDS011;2207;53.540;10.042;2023-05-07T11:48:49;3.90;;;3.60;;
4385;SDS011;2207;53.540;10.042;2023-05-07T11:51:21;2.00;;;1.90;;
4385;SDS011;2207;53.540;10.042;2023-05-07T11:53:50;3.40;;;2.87;;
4385;SDS011;2207;53.540;10.042;2023-05-07T11:56:17;3.93;;;2.67;;
4385;SDS011;2207;53.540;10.042;2023-05-07T11:58:46;3.17;;;2.97;;
4385;SDS011;2207;53.540;10.042;2023-05-07T12:01:14;2.57;;;2.37;;
4385;SDS011;2207;53.540;10.042;2023-05-07T12:03:43;2.73;;;2.53;;
4385;SDS011;2207;53.540;10.042;2023-05-07T12:06:11;4.87;;;3.67;;
4385;SDS011;2207;53.540;10.042;2023-05-07T12:08:41;2.67;;;2.47;;
4385;SDS011;2207;53.540;10.042;2023-05-07T12:11:08;3.13;;;2.93;;
4385;SDS011;2207;53.540;10.042;2023-05-07T12:13:36;1.40;;;1.30;;
4385;SDS011;2207;53.540;10.042;2023-05-07T12:16:04;3.30;;;3.10;;
4385;SDS011;2207;53.540;10.042;2023-05-07T12:18:32;2.50;;;2.20;;
4385;SDS011;2207;53.540;10.042;2023-05-07T12:21:01;2.97;;;2.40;;
4385;SDS011;2207;53.540;10.042;2023-05-07T12:23:28;2.20;;;2.07;;
4385;SDS011;2207;53.540;10.042;2023-05-07T12:25:57;3.80;;;2.87;;
4385;SDS011;2207;53.540;10.042;2023-05-07T12:28:25;2.60;;;2.37;;
4385;SDS011;2207;53.540;10.042;2023-05-07T12:30:51;4.40;;;2.80;;
4385;SDS011;2207;53.540;10.042;2023-05-07T12:33:23;2.53;;;2.33;;
4385;SDS011;2207;53.540;10.042;2023-05-07T12:35:51;2.03;;;1.93;;
4385;SDS011;2207;53.540;10.042;2023-05-07T12:38:19;2.90;;;2.20;;
4385;SDS011;2207;53.540;10.042;2023-05-07T12:40:47;1.97;;;1.77;;
4385;SDS011;2207;53.540;10.042;2023-05-07T12:43:17;2.30;;;1.50;;
4385;SDS011;2207;53.540;10.042;2023-05-07T12:45:44;4.47;;;2.70;;
4385;SDS011;2207;53.540;10.042;2023-05-07T12:48:12;2.47;;;2.27;;
4385;SDS011;2207;53.540;10.042;2023-05-07T12:50:39;3.77;;;2.83;;
4385;SDS011;2207;53.540;10.042;2023-05-07T12:53:06;2.60;;;2.50;;
4385;SDS011;2207;53.540;10.042;2023-05-07T12:55:40;2.73;;;2.53;;
4385;SDS011;2207;53.540;10.042;2023-05-07T12:58:08;2.07;;;1.97;;
4385;SDS011;2207;53.540;10.042;2023-05-07T13:00:42;2.30;;;2.17;;
4385;SDS011;2207;53.540;10.042;2023-05-07T13:03:09;2.67;;;2.47;;
4385;SDS011;2207;53.540;10.042;2023-05-07T13:05:36;2.07;;;1.97;;
4385;SDS011;2207;53.540;10.042;2023-05-07T13:08:03;2.00;;;1.90;;
4385;SDS011;2207;53.540;10.042;2023-05-07T13:10:30;4.33;;;2.27;;
4385;SDS011;2207;53.540;10.042;2023-05-07T13:12:59;4.10;;;2.30;;
4385;SDS011;2207;53.540;10.042;2023-05-07T13:15:25;4.30;;;2.10;;
4385;SDS011;2207;53.540;10.042;2023-05-07T13:17:54;2.20;;;2.10;;
4385;SDS011;2207;53.540;10.042;2023-05-07T13:20:21;2.47;;;2.27;;
4385;SDS011;2207;53.540;10.042;2023-05-07T13:22:48;2.23;;;2.03;;
4385;SDS011;2207;53.540;10.042;2023-05-07T13:25:14;2.57;;;2.17;;
4385;SDS011;2207;53.540;10.042;2023-05-07T13:27:41;2.83;;;2.13;;
4385;SDS011;2207;53.540;10.042;2023-05-07T13:30:08;2.50;;;2.30;;
4385;SDS011;2207;53.540;10.042;2023-05-07T13:32:35;2.67;;;2.47;;
4385;SDS011;2207;53.540;10.042;2023-05-07T13:35:03;2.70;;;2.50;;
4385;SDS011;2207;53.540;10.042;2023-05-07T13:37:31;2.77;;;1.67;;
4385;SDS011;2207;53.540;10.042;2023-05-07T13:39:57;2.30;;;1.90;;
4385;SDS011;2207;53.540;10.042;2023-05-07T13:42:24;1.73;;;1.40;;
4385;SDS011;2207;53.540;10.042;2023-05-07T13:44:51;2.70;;;2.20;;
4385;SDS011;2207;53.540;10.042;2023-05-07T13:47:17;3.53;;;2.17;;
4385;SDS011;2207;53.540;10.042;2023-05-07T13:49:44;1.97;;;1.87;;
4385;SDS011;2207;53.540;10.042;2023-05-07T13:52:12;1.80;;;1.70;;
4385;SDS011;2207;53.540;10.042;2023-05-07T13:54:39;2.00;;;1.90;;
4385;SDS011;2207;53.540;10.042;2023-05-07T13:57:06;2.10;;;1.70;;
4385;SDS011;2207;53.540;10.042;2023-05-07T13:59:32;2.27;;;2.07;;
4385;SDS011;2207;53.540;10.042;2023-05-07T14:01:59;1.90;;;1.80;;
4385;SDS011;2207;53.540;10.042;2023-05-07T14:04:26;1.60;;;1.50;;
4385;SDS011;2207;53.540;10.042;2023-05-07T14:06:53;1.70;;;1.60;;
4385;SDS011;2207;53.540;10.042;2023-05-07T14:09:21;7.80;;;2.10;;
4385;SDS011;2207;53.540;10.042;2023-05-07T14:11:47;2.20;;;2.10;;
4385;SDS011;2207;53.540;10.042;2023-05-07T14:14:16;1.60;;;1.50;;
4385;SDS011;2207;53.540;10.042;2023-05-07T14:16:43;1.90;;;1.80;;
4385;SDS011;2207;53.540;10.042;2023-05-07T14:19:09;2.50;;;1.80;;
4385;SDS011;2207;53.540;10.042;2023-05-07T14:21:36;1.93;;;1.83;;
4385;SDS011;2207;53.540;10.042;2023-05-07T14:24:03;1.37;;;1.27;;
4385;SDS011;2207;53.540;10.042;2023-05-07T14:26:33;2.33;;;2.23;;
4385;SDS011;2207;53.540;10.042;2023-05-07T14:29:00;1.80;;;1.70;;
4385;SDS011;2207;53.540;10.042;2023-05-07T14:31:26;1.80;;;1.70;;
4385;SDS011;2207;53.540;10.042;2023-05-07T14:33:53;1.73;;;1.57;;
4385;SDS011;2207;53.540;10.042;2023-05-07T14:36:22;1.80;;;1.70;;
4385;SDS011;2207;53.540;10.042;2023-05-07T14:38:51;1.57;;;1.20;;
4385;SDS011;2207;53.540;10.042;2023-05-07T14:41:18;1.10;;;1.10;;
4385;SDS011;2207;53.540;10.042;2023-05-07T14:43:47;5.70;;;1.67;;
4385;SDS011;2207;53.540;10.042;2023-05-07T14:46:15;1.50;;;1.43;;
4385;SDS011;2207;53.540;10.042;2023-05-07T14:48:42;1.50;;;1.40;;
4385;SDS011;2207;53.540;10.042;2023-05-07T14:51:09;1.33;;;1.23;;
4385;SDS011;2207;53.540;10.042;2023-05-07T14:53:37;3.10;;;2.20;;
4385;SDS011;2207;53.540;10.042;2023-05-07T14:56:03;1.40;;;1.37;;
4385;SDS011;2207;53.540;10.042;2023-05-07T14:58:31;2.10;;;1.13;;
4385;SDS011;2207;53.540;10.042;2023-05-07T15:00:59;1.50;;;1.40;;
4385;SDS011;2207;53.540;10.042;2023-05-07T15:03:26;2.27;;;2.07;;
4385;SDS011;2207;53.540;10.042;2023-05-07T15:05:53;2.23;;;1.67;;
4385;SDS011;2207;53.540;10.042;2023-05-07T15:08:20;1.23;;;1.13;;
4385;SDS011;2207;53.540;10.042;2023-05-07T15:10:47;1.40;;;1.40;;
4385;SDS011;2207;53.540;10.042;2023-05-07T15:13:14;0.80;;;0.80;;
4385;SDS011;2207;53.540;10.042;2023-05-07T15:15:41;1.33;;;1.33;;
4385;SDS011;2207;53.540;10.042;2023-05-07T15:18:10;1.53;;;1.43;;